createdAt,value
2023-01-15T00:02:50.677Z,53.42
2023-01-15T00:05:53.331Z,52.35
2023-01-15T00:08:56.158Z,54.65
2023-01-15T00:11:58.707Z,53.67
2023-01-15T00:15:01.002Z,52.20
2023-01-15T00:18:04.185Z,56.92
2023-01-15T00:21:08.294Z,54.10
2023-01-15T00:24:29.064Z,47.35
2023-01-15T00:27:40.693Z,46.35
2023-01-15T00:30:43.899Z,47.03
2023-01-15T00:33:46.244Z,46.08
2023-01-15T00:36:49.055Z,47.80
2023-01-15T00:39:51.367Z,46.08
2023-01-15T00:42:54.677Z,46.25
2023-01-15T00:45:57.079Z,45.12
2023-01-15T00:48:59.577Z,48.60
2023-01-15T00:52:01.735Z,47.97
2023-01-15T00:55:05.389Z,45.75
2023-01-15T00:58:07.637Z,50.47
2023-01-15T01:01:10.218Z,38.95
2023-01-15T01:04:12.553Z,28.77
2023-01-15T01:07:15.308Z,34.25
2023-01-15T01:10:17.622Z,31.87
2023-01-15T01:13:20.362Z,33.00
2023-01-15T01:16:37.376Z,38.55
2023-01-15T01:19:39.859Z,29.75
2023-01-15T01:22:43.269Z,33.50
2023-01-15T01:25:46.072Z,32.13
2023-01-15T01:28:50.440Z,34.97
2023-01-15T01:31:53.045Z,29.02
2023-01-15T01:34:55.395Z,29.98
2023-01-15T01:37:59.395Z,33.75
2023-01-15T01:41:01.589Z,33.20
2023-01-15T01:44:08.982Z,30.15
2023-01-15T01:47:22.916Z,36.03
2023-01-15T01:50:26.087Z,32.78
2023-01-15T01:53:33.244Z,47.20
2023-01-15T01:56:36.640Z,31.05
2023-01-15T01:59:39.819Z,27.02
2023-01-15T02:02:46.337Z,27.40
2023-01-15T02:05:53.968Z,33.25
2023-01-15T02:08:56.441Z,31.10
2023-01-15T02:12:11.668Z,31.58
2023-01-15T02:15:19.089Z,30.05
2023-01-15T02:18:31.659Z,31.60
2023-01-15T02:21:51.535Z,30.02
2023-01-15T02:25:23.439Z,30.92
2023-01-15T02:28:30.863Z,33.65
2023-01-15T02:31:38.662Z,32.28
2023-01-15T02:34:48.905Z,29.48
2023-01-15T02:38:00.182Z,35.77
2023-01-15T02:44:10.704Z,31.37
2023-01-15T02:47:15.502Z,27.33
2023-01-15T02:50:22.939Z,33.40
2023-01-15T02:53:30.011Z,29.30
2023-01-15T02:56:38.474Z,26.95
2023-01-15T02:59:45.406Z,30.55
2023-01-15T03:03:13.855Z,31.25
2023-01-15T03:06:33.027Z,29.35
2023-01-15T03:09:36.892Z,31.27
2023-01-15T03:13:04.894Z,29.12
2023-01-15T03:16:35.935Z,31.55
2023-01-15T03:19:49.687Z,29.20
2023-01-15T03:23:00.727Z,30.62
2023-01-15T03:26:03.292Z,35.45
2023-01-15T03:29:09.683Z,31.90
2023-01-15T03:32:13.405Z,36.85
2023-01-15T03:35:58.765Z,30.90
2023-01-15T03:39:02.003Z,32.92
2023-01-15T03:42:29.261Z,37.63
2023-01-15T03:45:38.176Z,29.77
2023-01-15T03:48:55.673Z,34.00
2023-01-15T03:52:25.344Z,29.75
2023-01-15T03:55:42.027Z,31.00
2023-01-15T03:58:48.166Z,31.12
2023-01-15T04:01:53.430Z,32.80
2023-01-15T04:04:58.906Z,31.48
2023-01-15T04:08:03.038Z,32.15
2023-01-15T04:11:06.700Z,28.25
2023-01-15T04:14:14.709Z,33.40
2023-01-15T04:17:17.544Z,32.17
2023-01-15T04:20:19.809Z,35.78
2023-01-15T04:23:23.565Z,31.73
2023-01-15T04:26:25.802Z,31.48
2023-01-15T04:29:28.505Z,30.05
2023-01-15T04:32:30.739Z,30.75
2023-01-15T04:35:33.297Z,29.30
2023-01-15T04:38:38.575Z,29.73
2023-01-15T04:41:59.642Z,30.77
2023-01-15T04:45:01.925Z,27.23
2023-01-15T04:48:04.720Z,26.67
2023-01-15T04:51:07.614Z,25.80
2023-01-15T04:54:12.685Z,27.33
2023-01-15T04:57:14.998Z,27.23
2023-01-15T05:00:18.191Z,25.30
2023-01-15T05:03:20.454Z,23.87
2023-01-15T05:06:22.938Z,25.62
2023-01-15T05:09:25.209Z,27.37
2023-01-15T05:12:27.737Z,24.33
2023-01-15T05:15:30.159Z,26.50
2023-01-15T05:18:32.710Z,24.12
2023-01-15T05:21:39.840Z,23.35
2023-01-15T05:24:42.399Z,24.08
2023-01-15T05:27:44.648Z,27.15
2023-01-15T05:30:47.164Z,24.45
2023-01-15T05:33:50.475Z,24.90
2023-01-15T05:36:53.203Z,23.60
2023-01-15T05:39:55.330Z,23.65
2023-01-15T05:42:57.885Z,23.87
2023-01-15T05:46:02.379Z,24.95
2023-01-15T05:49:08.315Z,22.62
2023-01-15T05:52:10.512Z,23.67
2023-01-15T05:55:13.020Z,24.08
2023-01-15T05:58:15.332Z,22.58
2023-01-15T06:01:18.199Z,21.85
2023-01-15T06:04:21.828Z,22.35
2023-01-15T06:07:24.181Z,23.10
2023-01-15T06:10:26.677Z,21.90
2023-01-15T06:13:28.860Z,22.52
2023-01-15T06:16:32.290Z,21.08
2023-01-15T06:19:34.467Z,20.52
2023-01-15T06:22:38.975Z,24.52
2023-01-15T06:25:41.188Z,28.65
2023-01-15T06:28:45.042Z,21.83
2023-01-15T06:31:49.250Z,22.35
2023-01-15T06:34:51.934Z,23.95
2023-01-15T06:37:54.279Z,25.75
2023-01-15T06:40:58.974Z,23.00
2023-01-15T06:44:19.846Z,25.85
2023-01-15T06:47:23.438Z,25.65
2023-01-15T06:50:26.486Z,24.77
2023-01-15T06:53:29.047Z,26.62
2023-01-15T06:56:31.300Z,25.12
2023-01-15T06:59:33.919Z,24.80
2023-01-15T07:02:36.433Z,25.27
2023-01-15T07:05:39.308Z,26.65
2023-01-15T07:08:41.533Z,24.98
2023-01-15T07:11:49.956Z,24.63
2023-01-15T07:14:52.240Z,26.60
2023-01-15T07:17:58.112Z,25.00
2023-01-15T07:21:00.857Z,26.45
2023-01-15T07:24:03.807Z,23.98
2023-01-15T07:27:06.651Z,29.20
2023-01-15T07:30:09.683Z,28.23
2023-01-15T07:33:12.896Z,24.45
2023-01-15T07:36:15.503Z,27.23
2023-01-15T07:39:17.933Z,27.05
2023-01-15T07:42:39.143Z,28.73
2023-01-15T07:46:02.402Z,26.50
2023-01-15T07:49:28.832Z,25.15
2023-01-15T07:52:31.153Z,26.37
2023-01-15T07:55:36.108Z,29.37
2023-01-15T07:58:38.340Z,29.45
2023-01-15T08:01:40.909Z,27.75
2023-01-15T08:04:43.490Z,30.37
2023-01-15T08:07:45.917Z,27.92
2023-01-15T08:11:09.210Z,26.87
2023-01-15T08:14:29.993Z,26.85
2023-01-15T08:17:40.420Z,28.45
2023-01-15T08:20:42.778Z,28.40
2023-01-15T08:23:46.653Z,29.50
2023-01-15T08:26:48.967Z,32.35
2023-01-15T08:29:51.496Z,31.12
2023-01-15T08:32:59.601Z,27.55
2023-01-15T08:36:02.344Z,30.65
2023-01-15T08:39:04.816Z,30.52
2023-01-15T08:42:08.292Z,27.77
2023-01-15T08:45:11.122Z,30.40
2023-01-15T08:48:13.769Z,28.90
2023-01-15T08:51:15.997Z,28.15
2023-01-15T08:54:20.242Z,29.20
2023-01-15T08:57:22.445Z,28.00
2023-01-15T09:00:25.295Z,29.30
2023-01-15T09:03:27.565Z,30.83
2023-01-15T09:06:30.176Z,28.80
2023-01-15T09:09:33.948Z,28.58
2023-01-15T09:12:36.546Z,30.73
2023-01-15T09:15:38.788Z,30.62
2023-01-15T09:18:41.484Z,28.92
2023-01-15T09:21:44.067Z,28.27
2023-01-15T09:24:47.159Z,28.08
2023-01-15T09:27:49.896Z,27.02
2023-01-15T09:30:52.460Z,28.42
2023-01-15T09:33:55.572Z,25.40
2023-01-15T09:36:58.044Z,25.35
2023-01-15T09:40:02.321Z,24.55
2023-01-15T09:43:34.085Z,24.33
2023-01-15T09:47:01.315Z,24.95
2023-01-15T09:50:43.856Z,22.67
2023-01-15T09:54:18.355Z,25.35
2023-01-15T09:57:23.887Z,24.25
2023-01-15T10:00:29.839Z,23.15
2023-01-15T10:03:42.398Z,22.73
2023-01-15T10:07:06.044Z,21.17
2023-01-15T10:10:18.036Z,18.45
2023-01-15T10:13:29.488Z,26.70
2023-01-15T10:16:33.929Z,19.80
2023-01-15T10:19:44.434Z,22.08
2023-01-15T10:22:58.784Z,18.85
2023-01-15T10:26:20.449Z,19.60
2023-01-15T10:30:04.543Z,20.37
2023-01-15T10:33:59.371Z,17.90
2023-01-15T10:37:04.663Z,20.10
2023-01-15T10:40:24.948Z,17.58
2023-01-15T10:43:45.696Z,21.70
2023-01-15T10:46:58.335Z,15.93
2023-01-15T10:50:03.824Z,16.35
2023-01-15T10:53:17.737Z,18.52
2023-01-15T10:56:26.296Z,16.70
2023-01-15T10:59:38.272Z,16.90
2023-01-15T11:02:45.095Z,18.70
2023-01-15T11:05:47.752Z,15.30
2023-01-15T11:09:09.174Z,16.25
2023-01-15T11:12:24.197Z,16.83
2023-01-15T11:15:45.356Z,17.17
2023-01-15T11:19:06.515Z,17.20
2023-01-15T11:22:13.452Z,18.95
2023-01-15T11:25:26.160Z,17.60
2023-01-15T11:28:35.376Z,20.48
2023-01-15T11:31:39.138Z,18.83
2023-01-15T11:34:42.117Z,17.77
2023-01-15T11:37:44.463Z,20.17
2023-01-15T11:41:02.135Z,17.55
2023-01-15T11:44:28.771Z,19.23
2023-01-15T11:47:49.674Z,17.33
2023-01-15T11:51:10.663Z,17.35
2023-01-15T11:54:15.173Z,19.42
2023-01-15T11:57:30.391Z,19.30
2023-01-15T12:00:36.961Z,18.80
2023-01-15T12:03:40.967Z,19.12
2023-01-15T12:06:43.278Z,18.00
2023-01-15T12:09:48.793Z,19.75
2023-01-15T12:13:15.841Z,19.98
2023-01-15T12:16:35.884Z,20.08
2023-01-15T12:20:06.019Z,20.80
2023-01-15T12:23:30.673Z,21.27
2023-01-15T12:26:57.588Z,21.85
2023-01-15T12:30:27.766Z,19.50
2023-01-15T12:33:35.883Z,20.60
2023-01-15T12:36:52.133Z,22.25
2023-01-15T12:40:00.600Z,20.35
2023-01-15T12:43:21.791Z,21.70
2023-01-15T12:46:29.161Z,20.62
2023-01-15T12:49:39.774Z,19.37
2023-01-15T12:52:46.332Z,17.70
2023-01-15T12:56:01.916Z,17.98
2023-01-15T12:59:18.537Z,18.23
2023-01-15T13:02:46.430Z,17.60
2023-01-15T13:05:53.630Z,16.37
2023-01-15T13:09:05.175Z,18.60
2023-01-15T13:12:14.143Z,16.30
2023-01-15T13:15:19.673Z,18.17
2023-01-15T13:18:35.655Z,16.90
2023-01-15T13:21:40.137Z,18.23
2023-01-15T13:25:02.025Z,19.60
2023-01-15T13:28:36.690Z,15.90
2023-01-15T13:31:53.896Z,18.37
2023-01-15T13:34:58.302Z,16.73
2023-01-15T13:38:04.830Z,17.35
2023-01-15T13:41:08.696Z,16.62
2023-01-15T13:44:16.929Z,17.37
2023-01-15T13:47:24.411Z,15.43
2023-01-15T13:50:34.305Z,16.75
2023-01-15T13:53:47.403Z,17.27
2023-01-15T13:56:49.543Z,15.35
2023-01-15T13:59:52.055Z,20.70
2023-01-15T14:02:57.671Z,15.75
2023-01-15T14:06:02.895Z,15.80
2023-01-15T14:09:05.902Z,16.12
2023-01-15T14:12:11.308Z,21.55
2023-01-15T14:15:16.243Z,17.87
2023-01-15T14:18:24.717Z,19.42
2023-01-15T14:22:00.374Z,19.17
2023-01-15T14:25:11.865Z,18.12
2023-01-15T14:28:32.919Z,18.92
2023-01-15T14:32:01.768Z,22.13
2023-01-15T14:35:10.458Z,17.30
2023-01-15T14:38:18.032Z,19.12
2023-01-15T14:41:59.503Z,17.02
2023-01-15T14:45:08.098Z,20.65
2023-01-15T14:48:28.731Z,18.58
2023-01-15T14:51:45.857Z,20.15
2023-01-15T14:54:48.607Z,18.10
2023-01-15T14:58:05.252Z,19.20
2023-01-15T15:01:14.759Z,18.77
2023-01-15T15:04:39.034Z,20.00
2023-01-15T15:07:44.709Z,17.80
2023-01-15T15:10:54.847Z,17.10
2023-01-15T15:13:57.846Z,20.23
2023-01-15T15:17:04.459Z,20.30
2023-01-15T15:20:22.919Z,18.27
2023-01-15T15:23:39.683Z,18.60
2023-01-15T15:26:41.979Z,21.60
2023-01-15T15:29:44.782Z,21.30
2023-01-15T15:32:47.864Z,21.27
2023-01-15T15:35:54.719Z,21.00
2023-01-15T15:39:01.504Z,24.37
2023-01-15T15:42:29.638Z,21.50
2023-01-15T15:45:50.949Z,22.83
2023-01-15T15:48:57.970Z,23.85
2023-01-15T15:52:00.162Z,23.48
2023-01-15T15:55:06.041Z,25.88
2023-01-15T15:58:12.785Z,24.52
2023-01-15T16:01:15.416Z,25.58
2023-01-15T16:04:20.323Z,24.80
2023-01-15T16:07:26.983Z,23.83
2023-01-15T16:10:32.114Z,23.92
2023-01-15T16:13:35.296Z,25.77
2023-01-15T16:16:38.296Z,27.65
2023-01-15T16:19:42.050Z,25.20
2023-01-15T16:23:05.591Z,28.05
2023-01-15T16:26:21.436Z,27.35
2023-01-15T16:29:28.320Z,27.27
2023-01-15T16:32:35.596Z,25.98
2023-01-15T16:35:39.063Z,27.33
2023-01-15T16:38:42.919Z,27.90
2023-01-15T16:41:45.498Z,28.10
2023-01-15T16:44:54.152Z,29.52
2023-01-15T16:48:01.148Z,26.92
2023-01-15T16:51:30.375Z,27.52
2023-01-15T16:54:32.721Z,30.10
2023-01-15T16:57:35.932Z,32.97
2023-01-15T17:00:40.320Z,26.58
2023-01-15T17:03:43.435Z,34.05
2023-01-15T17:06:59.111Z,33.20
2023-01-15T17:10:02.980Z,33.42
2023-01-15T17:13:05.500Z,29.92
2023-01-15T17:16:13.686Z,31.73
2023-01-15T17:19:17.257Z,33.67
2023-01-15T17:22:28.027Z,32.08
2023-01-15T17:28:36.977Z,30.70
2023-01-15T17:31:40.116Z,32.95
2023-01-15T17:34:42.381Z,34.28
2023-01-15T17:37:44.842Z,36.15
2023-01-15T17:40:47.063Z,34.83
2023-01-15T17:43:50.343Z,37.65
2023-01-15T17:46:52.583Z,35.45
2023-01-15T17:49:55.108Z,35.85
2023-01-15T17:52:57.261Z,36.30
2023-01-15T17:56:17.970Z,37.58
2023-01-15T17:59:39.020Z,40.10
2023-01-15T18:03:01.443Z,35.90
2023-01-15T18:06:04.278Z,35.30
2023-01-15T18:09:09.201Z,39.03
2023-01-15T18:12:11.698Z,34.17
2023-01-15T18:15:15.109Z,39.47
2023-01-15T18:18:17.600Z,39.35
2023-01-15T18:21:20.181Z,36.35
2023-01-15T18:24:22.681Z,37.67
2023-01-15T18:27:29.863Z,37.58
2023-01-15T18:30:33.674Z,41.40
2023-01-15T18:33:35.832Z,39.60
2023-01-15T18:36:38.452Z,38.58
2023-01-15T18:39:40.677Z,38.85
2023-01-15T18:43:01.953Z,42.60
2023-01-15T18:46:34.845Z,39.15
2023-01-15T18:49:37.712Z,41.75
2023-01-15T18:52:50.052Z,41.30
2023-01-15T18:55:52.533Z,42.10
2023-01-15T18:58:56.651Z,43.87
2023-01-15T19:02:00.154Z,45.17
2023-01-15T19:05:02.538Z,42.62
2023-01-15T19:08:05.053Z,44.72
2023-01-15T19:11:13.658Z,44.47
2023-01-15T19:14:34.569Z,40.95
2023-01-15T19:17:55.485Z,45.47
2023-01-15T19:20:58.127Z,47.53
2023-01-15T19:24:00.324Z,45.75
2023-01-15T19:27:04.201Z,45.90
2023-01-15T19:30:07.988Z,44.97
2023-01-15T19:33:10.912Z,47.28
2023-01-15T19:36:13.075Z,43.70
2023-01-15T19:39:17.628Z,47.25
2023-01-15T19:42:39.329Z,43.85
2023-01-15T19:46:03.402Z,46.42
2023-01-15T19:49:28.959Z,51.20
2023-01-15T19:52:37.973Z,47.17
2023-01-15T19:55:43.720Z,46.20
2023-01-15T19:58:46.333Z,47.20
2023-01-15T20:01:48.584Z,46.33
2023-01-15T20:04:51.166Z,46.55
2023-01-15T20:07:53.589Z,47.38
2023-01-15T20:10:56.053Z,49.13
2023-01-15T20:13:58.308Z,49.45
2023-01-15T20:17:00.888Z,48.30
2023-01-15T20:20:03.370Z,49.15
2023-01-15T20:23:06.379Z,49.00
2023-01-15T20:26:11.772Z,46.28
2023-01-15T20:29:14.204Z,49.20
2023-01-15T20:32:16.335Z,48.75
2023-01-15T20:35:31.389Z,47.97
2023-01-15T20:38:33.707Z,44.63
2023-01-15T20:41:56.064Z,47.45
2023-01-15T20:44:58.269Z,45.60
2023-01-15T20:48:13.603Z,40.92
2023-01-15T20:51:15.966Z,45.35
2023-01-15T20:54:19.830Z,46.40
2023-01-15T20:57:22.213Z,51.42
2023-01-15T21:00:25.454Z,47.58
2023-01-15T21:03:27.599Z,51.22
2023-01-15T21:06:30.041Z,50.63
2023-01-15T21:09:32.159Z,54.30
2023-01-15T21:12:34.847Z,56.78
2023-01-15T21:15:37.075Z,55.65
2023-01-15T21:18:43.115Z,49.65
2023-01-15T21:21:45.318Z,45.70
2023-01-15T21:24:49.536Z,46.75
2023-01-15T21:27:53.036Z,45.78
2023-01-15T21:30:55.871Z,49.45
2023-01-15T21:33:58.740Z,45.47
2023-01-15T21:37:01.224Z,40.75
2023-01-15T21:40:03.632Z,41.58
2023-01-15T21:43:25.302Z,41.10
2023-01-15T21:46:28.325Z,36.45
2023-01-15T21:49:33.887Z,38.83
2023-01-15T21:52:36.705Z,41.88
2023-01-15T21:55:39.232Z,37.70
2023-01-15T21:58:41.562Z,42.10
2023-01-15T22:01:44.221Z,44.00
2023-01-15T22:04:47.070Z,41.88
2023-01-15T22:07:49.293Z,46.03
2023-01-15T22:10:53.124Z,47.10
2023-01-15T22:13:55.360Z,44.65
2023-01-15T22:17:00.777Z,43.92
2023-01-15T22:20:03.569Z,41.85
2023-01-15T22:23:06.055Z,42.30
2023-01-15T22:26:21.722Z,43.05
2023-01-15T22:29:29.760Z,36.97
2023-01-15T22:32:32.112Z,42.08
2023-01-15T22:35:34.788Z,38.72
2023-01-15T22:38:37.018Z,43.85
2023-01-15T22:41:58.171Z,37.97
2023-01-15T22:45:00.834Z,39.13
2023-01-15T22:48:03.765Z,38.15
2023-01-15T22:51:06.370Z,40.22
2023-01-15T22:54:09.122Z,39.95
2023-01-15T22:57:12.990Z,37.30
2023-01-15T23:00:16.280Z,39.80
2023-01-15T23:03:18.495Z,39.05
2023-01-15T23:06:25.143Z,36.08
2023-01-15T23:09:27.440Z,41.95
2023-01-15T23:12:31.512Z,41.40
2023-01-15T23:15:35.253Z,38.25
2023-01-15T23:18:37.942Z,39.75
2023-01-15T23:21:40.986Z,36.83
2023-01-15T23:24:43.657Z,36.58
2023-01-15T23:27:45.926Z,41.75
2023-01-15T23:30:48.512Z,41.72
2023-01-15T23:33:50.903Z,38.13
2023-01-15T23:36:53.545Z,37.25
2023-01-15T23:39:55.835Z,37.35
2023-01-15T23:43:16.792Z,35.53
2023-01-15T23:46:32.825Z,38.70
2023-01-15T23:49:35.510Z,40.22
2023-01-15T23:52:37.737Z,39.40
2023-01-15T23:55:40.365Z,35.70
2023-01-15T23:58:42.680Z,37.63
